Weather data: current Freitag, 24.03.2017 17:30
Date Time Temperature Humidity Barometer Rain Wind Direction Direction Dew point Wind chill Wind gust
24.03.2017 17:30 15,2 C 66 % 1021,7 hPa 0,0 l/m 1,4 km/h (1 Bft) S-SE 168 8,9 C 15,2 C 4,8 km/h (1 Bft)
24.03.2017 17:25 15,2 C 65 % 1021,7 hPa 0,0 l/m 1,7 km/h (1 Bft) S-SW 203 8,7 C 15,2 C 4,8 km/h (1 Bft)
24.03.2017 17:20 15,0 C 66 % 1021,7 hPa 0,0 l/m 1,5 km/h (1 Bft) S 191 8,7 C 15,0 C 4,8 km/h (1 Bft)
24.03.2017 17:15 15,0 C 66 % 1021,7 hPa 0,0 l/m 3,8 km/h (1 Bft) SW 219 8,7 C 15,0 C 8,0 km/h (2 Bft)
24.03.2017 17:10 15,2 C 66 % 1021,7 hPa 0,0 l/m 3,9 km/h (1 Bft) S 169 8,9 C 15,2 C 8,0 km/h (2 Bft)
24.03.2017 17:05 15,2 C 66 % 1021,7 hPa 0,0 l/m 2,0 km/h (1 Bft) S-SW 211 8,9 C 15,2 C 4,8 km/h (1 Bft)
24.03.2017 17:00 15,0 C 67 % 1021,7 hPa 0,0 l/m 3,9 km/h (1 Bft) SW 228 8,9 C 15,0 C 9,7 km/h (2 Bft)
24.03.2017 16:55 15,0 C 66 % 1021,7 hPa 0,0 l/m 4,5 km/h (1 Bft) S 179 8,7 C 15,0 C 9,7 km/h (2 Bft)
24.03.2017 16:50 15,1 C 66 % 1021,6 hPa 0,0 l/m 5,1 km/h (1 Bft) S-SW 200 8,8 C 15,1 C 9,7 km/h (2 Bft)
24.03.2017 16:45 15,1 C 65 % 1021,7 hPa 0,0 l/m 4,5 km/h (1 Bft) S-SE 158 8,6 C 15,1 C 8,0 km/h (2 Bft)
24.03.2017 16:40 15,2 C 65 % 1021,8 hPa 0,0 l/m 3,6 km/h (1 Bft) S-SW 202 8,7 C 15,2 C 8,0 km/h (2 Bft)
24.03.2017 16:35 15,1 C 65 % 1021,8 hPa 0,0 l/m 5,2 km/h (1 Bft) SW 233 8,6 C 15,1 C 9,7 km/h (2 Bft)
24.03.2017 16:30 15,2 C 66 % 1021,8 hPa 0,0 l/m 4,1 km/h (1 Bft) SW 234 8,9 C 15,2 C 8,0 km/h (2 Bft)
24.03.2017 16:25 14,9 C 65 % 1021,7 hPa 0,0 l/m 6,0 km/h (2 Bft) S-SW 210 8,4 C 14,9 C 9,7 km/h (2 Bft)
24.03.2017 16:20 15,2 C 65 % 1021,7 hPa 0,0 l/m 6,3 km/h (2 Bft) S 178 8,7 C 15,2 C 9,7 km/h (2 Bft)
24.03.2017 16:15 15,3 C 66 % 1021,7 hPa 0,0 l/m 6,2 km/h (2 Bft) S-SW 194 9,0 C 15,3 C 11,3 km/h (2 Bft)
24.03.2017 16:10 15,3 C 64 % 1021,8 hPa 0,0 l/m 5,3 km/h (1 Bft) SW 222 8,5 C 15,3 C 11,3 km/h (2 Bft)
24.03.2017 16:05 15,3 C 66 % 1021,8 hPa 0,0 l/m 4,2 km/h (1 Bft) S-SE 147 9,0 C 15,3 C 9,7 km/h (2 Bft)
24.03.2017 16:00 15,1 C 65 % 1021,8 hPa 0,0 l/m 5,8 km/h (2 Bft) S-SW 204 8,6 C 15,1 C 9,7 km/h (2 Bft)
24.03.2017 15:55 15,1 C 64 % 1021,9 hPa 0,0 l/m 5,0 km/h (1 Bft) S-SE 165 8,3 C 15,1 C 9,7 km/h (2 Bft)
24.03.2017 15:50 14,9 C 65 % 1022,0 hPa 0,0 l/m 4,6 km/h (1 Bft) S 186 8,4 C 14,9 C 9,7 km/h (2 Bft)
24.03.2017 15:45 14,9 C 66 % 1022,0 hPa 0,0 l/m 7,9 km/h (2 Bft) S-SW 193 8,6 C 14,1 C 12,9 km/h (3 Bft)
24.03.2017 15:40 15,1 C 65 % 1022,1 hPa 0,0 l/m 6,2 km/h (2 Bft) S 172 8,6 C 15,1 C 12,9 km/h (3 Bft)
24.03.2017 15:35 15,1 C 66 % 1022,2 hPa 0,0 l/m 6,1 km/h (2 Bft) SW 226 8,8 C 15,1 C 11,3 km/h (2 Bft)
24.03.2017 15:30 15,1 C 65 % 1022,2 hPa 0,0 l/m 6,5 km/h (2 Bft) SW 215 8,6 C 15,1 C 12,9 km/h (3 Bft)
24.03.2017 15:25 15,2 C 65 % 1022,4 hPa 0,0 l/m 5,8 km/h (2 Bft) S 169 8,7 C 15,2 C 11,3 km/h (2 Bft)
24.03.2017 15:20 15,1 C 64 % 1022,5 hPa 0,0 l/m 6,1 km/h (2 Bft) S 185 8,3 C 15,1 C 9,7 km/h (2 Bft)
24.03.2017 15:15 15,1 C 64 % 1022,6 hPa 0,0 l/m 5,0 km/h (1 Bft) S 188 8,3 C 15,1 C 9,7 km/h (2 Bft)
24.03.2017 15:10 15,0 C 64 % 1022,5 hPa 0,0 l/m 6,2 km/h (2 Bft) S 189 8,2 C 15,0 C 12,9 km/h (3 Bft)
24.03.2017 15:05 14,8 C 65 % 1022,5 hPa 0,0 l/m 6,2 km/h (2 Bft) SW 214 8,3 C 14,8 C 12,9 km/h (3 Bft)
24.03.2017 15:00 14,7 C 65 % 1022,5 hPa 0,0 l/m 7,1 km/h (2 Bft) SW 222 8,2 C 14,3 C 12,9 km/h (3 Bft)
24.03.2017 14:55 14,6 C 65 % 1022,5 hPa 0,0 l/m 10,0 km/h (2 Bft) S-SW 193 8,1 C 12,7 C 14,5 km/h (3 Bft)
24.03.2017 14:50 14,8 C 63 % 1022,5 hPa 0,0 l/m 8,1 km/h (2 Bft) SW 230 7,8 C 13,8 C 14,5 km/h (3 Bft)
24.03.2017 14:45 14,9 C 64 % 1022,5 hPa 0,0 l/m 6,6 km/h (2 Bft) S-SE 160 8,2 C 14,8 C 16,1 km/h (3 Bft)
24.03.2017 14:40 14,7 C 65 % 1022,5 hPa 0,0 l/m 9,4 km/h (2 Bft) SW 219 8,2 C 13,1 C 16,1 km/h (3 Bft)
24.03.2017 14:35 14,7 C 64 % 1022,6 hPa 0,0 l/m 8,8 km/h (2 Bft) S-SW 196 8,0 C 13,4 C 16,1 km/h (3 Bft)
24.03.2017 14:30 14,8 C 64 % 1022,7 hPa 0,0 l/m 8,5 km/h (2 Bft) S-SE 163 8,1 C 13,6 C 16,1 km/h (3 Bft)
24.03.2017 14:25 14,7 C 64 % 1022,7 hPa 0,0 l/m 9,2 km/h (2 Bft) S-SW 210 8,0 C 13,2 C 16,1 km/h (3 Bft)
24.03.2017 14:20 14,9 C 64 % 1022,8 hPa 0,0 l/m 6,8 km/h (2 Bft) S-SW 195 8,2 C 14,7 C 11,3 km/h (2 Bft)
24.03.2017 14:15 14,9 C 65 % 1022,9 hPa 0,0 l/m 5,9 km/h (2 Bft) S-SW 193 8,4 C 14,9 C 11,3 km/h (2 Bft)
24.03.2017 14:10 14,8 C 63 % 1023,0 hPa 0,0 l/m 6,3 km/h (2 Bft) S 191 7,8 C 14,8 C 14,5 km/h (3 Bft)
24.03.2017 14:05 14,7 C 66 % 1023,1 hPa 0,0 l/m 9,3 km/h (2 Bft) S-SW 194 8,4 C 13,1 C 16,1 km/h (3 Bft)
24.03.2017 14:00 14,8 C 64 % 1023,2 hPa 0,0 l/m 8,5 km/h (2 Bft) S 172 8,1 C 13,6 C 19,3 km/h (3 Bft)
24.03.2017 13:55 14,6 C 66 % 1023,2 hPa 0,0 l/m 9,4 km/h (2 Bft) S-SW 210 8,3 C 13,0 C 16,1 km/h (3 Bft)
24.03.2017 13:50 14,4 C 67 % 1023,2 hPa 0,0 l/m 10,6 km/h (2 Bft) S 188 8,4 C 12,2 C 17,7 km/h (3 Bft)
24.03.2017 13:45 14,6 C 66 % 1023,3 hPa 0,0 l/m 8,1 km/h (2 Bft) W-SW 238 8,3 C 13,6 C 16,1 km/h (3 Bft)
24.03.2017 13:40 14,4 C 66 % 1023,3 hPa 0,0 l/m 10,5 km/h (2 Bft) W-SW 248 8,1 C 12,2 C 17,7 km/h (3 Bft)
24.03.2017 13:35 14,6 C 66 % 1023,3 hPa 0,0 l/m 10,3 km/h (2 Bft) S-SW 193 8,3 C 12,5 C 17,7 km/h (3 Bft)
24.03.2017 13:30 14,7 C 64 % 1023,3 hPa 0,0 l/m 10,3 km/h (2 Bft) S-SE 165 8,0 C 12,6 C 19,3 km/h (3 Bft)
24.03.2017 13:25 14,7 C 66 % 1023,3 hPa 0,0 l/m 8,1 km/h (2 Bft) S 170 8,4 C 13,7 C 19,3 km/h (3 Bft)
24.03.2017 13:20 14,6 C 65 % 1023,5 hPa 0,0 l/m 11,1 km/h (2 Bft) W-SW 250 8,1 C 12,2 C 20,9 km/h (4 Bft)
24.03.2017 13:15 14,6 C 65 % 1023,4 hPa 0,0 l/m 9,4 km/h (2 Bft) S-SE 166 8,1 C 13,0 C 20,9 km/h (4 Bft)
24.03.2017 13:10 14,4 C 66 % 1023,4 hPa 0,0 l/m 10,3 km/h (2 Bft) S 172 8,1 C 12,3 C 19,3 km/h (3 Bft)
24.03.2017 13:05 14,3 C 64 % 1023,5 hPa 0,0 l/m 10,5 km/h (2 Bft) S-SW 203 7,6 C 12,1 C 17,7 km/h (3 Bft)
24.03.2017 13:00 14,5 C 64 % 1023,5 hPa 0,0 l/m 10,9 km/h (2 Bft) S-SW 212 7,8 C 12,2 C 19,3 km/h (3 Bft)
24.03.2017 12:55 14,4 C 62 % 1023,4 hPa 0,0 l/m 13,6 km/h (3 Bft) S-SW 205 7,2 C 11,0 C 20,9 km/h (4 Bft)
24.03.2017 12:50 14,4 C 63 % 1023,4 hPa 0,0 l/m 13,7 km/h (3 Bft) S-SW 198 7,4 C 10,9 C 24,1 km/h (4 Bft)
24.03.2017 12:45 14,6 C 64 % 1023,4 hPa 0,0 l/m 13,0 km/h (3 Bft) SE 141 7,9 C 11,4 C 20,9 km/h (4 Bft)
24.03.2017 12:40 14,7 C 61 % 1023,4 hPa 0,0 l/m 14,4 km/h (3 Bft) SW 215 7,3 C 11,0 C 22,5 km/h (4 Bft)
24.03.2017 12:35 14,8 C 62 % 1023,3 hPa 0,0 l/m 9,6 km/h (2 Bft) S-SW 205 7,6 C 13,1 C 17,7 km/h (3 Bft)
24.03.2017 12:30 14,9 C 60 % 1023,2 hPa 0,0 l/m 9,9 km/h (2 Bft) S-SW 210 7,2 C 13,1 C 20,9 km/h (4 Bft)
24.03.2017 12:25 14,9 C 59 % 1023,2 hPa 0,0 l/m 9,4 km/h (2 Bft) SW 214 7,0 C 13,3 C 19,3 km/h (3 Bft)
24.03.2017 12:20 14,9 C 62 % 1023,2 hPa 0,0 l/m 7,2 km/h (2 Bft) SW 224 7,7 C 14,4 C 14,5 km/h (3 Bft)
24.03.2017 12:15 14,9 C 60 % 1023,2 hPa 0,0 l/m 7,3 km/h (2 Bft) W-SW 246 7,2 C 14,4 C 12,9 km/h (3 Bft)
24.03.2017 12:10 14,9 C 61 % 1023,3 hPa 0,0 l/m 7,8 km/h (2 Bft) W-SW 245 7,4 C 14,1 C 14,5 km/h (3 Bft)
24.03.2017 12:05 15,1 C 61 % 1023,3 hPa 0,0 l/m 7,8 km/h (2 Bft) S 190 7,6 C 14,3 C 17,7 km/h (3 Bft)
24.03.2017 12:00 15,2 C 59 % 1023,2 hPa 0,0 l/m 8,4 km/h (2 Bft) W-SW 244 7,2 C 14,1 C 17,7 km/h (3 Bft)
24.03.2017 11:55 14,9 C 62 % 1023,3 hPa 0,0 l/m 8,7 km/h (2 Bft) SW 230 7,7 C 13,6 C 16,1 km/h (3 Bft)
24.03.2017 11:50 14,8 C 61 % 1023,4 hPa 0,0 l/m 7,8 km/h (2 Bft) SW 224 7,4 C 14,0 C 16,1 km/h (3 Bft)
24.03.2017 11:45 14,8 C 60 % 1023,3 hPa 0,0 l/m 8,3 km/h (2 Bft) W-SW 240 7,1 C 13,7 C 17,7 km/h (3 Bft)
24.03.2017 11:40 14,5 C 59 % 1023,4 hPa 0,0 l/m 11,2 km/h (2 Bft) W 261 6,6 C 12,0 C 19,3 km/h (3 Bft)
24.03.2017 11:35 14,8 C 58 % 1023,4 hPa 0,0 l/m 9,3 km/h (2 Bft) W-SW 241 6,6 C 13,2 C 17,7 km/h (3 Bft)
24.03.2017 11:30 15,1 C 57 % 1023,4 hPa 0,0 l/m 8,4 km/h (2 Bft) W-SW 243 6,6 C 14,0 C 16,1 km/h (3 Bft)
24.03.2017 11:25 15,2 C 59 % 1023,3 hPa 0,0 l/m 7,6 km/h (2 Bft) S-SW 212 7,2 C 14,5 C 12,9 km/h (3 Bft)
24.03.2017 11:20 15,2 C 58 % 1023,3 hPa 0,0 l/m 7,0 km/h (2 Bft) S-SW 194 7,0 C 14,9 C 11,3 km/h (2 Bft)
24.03.2017 11:15 15,2 C 59 % 1023,4 hPa 0,0 l/m 5,7 km/h (1 Bft) S 172 7,2 C 15,2 C 12,9 km/h (3 Bft)
24.03.2017 11:10 14,9 C 60 % 1023,5 hPa 0,0 l/m 5,6 km/h (1 Bft) SW 233 7,2 C 14,9 C 14,5 km/h (3 Bft)
24.03.2017 11:05 14,7 C 59 % 1023,5 hPa 0,0 l/m 9,7 km/h (2 Bft) S-SW 196 6,8 C 12,9 C 16,1 km/h (3 Bft)
24.03.2017 11:00 14,8 C 60 % 1023,5 hPa 0,0 l/m 9,5 km/h (2 Bft) S-SW 198 7,1 C 13,1 C 16,1 km/h (3 Bft)
24.03.2017 10:55 14,9 C 63 % 1023,6 hPa 0,0 l/m 8,2 km/h (2 Bft) S 169 7,9 C 13,9 C 16,1 km/h (3 Bft)
24.03.2017 10:50 15,1 C 60 % 1023,6 hPa 0,0 l/m 9,5 km/h (2 Bft) W-SW 238 7,4 C 13,5 C 16,1 km/h (3 Bft)
24.03.2017 10:45 15,3 C 59 % 1023,6 hPa 0,0 l/m 5,1 km/h (1 Bft) W-SW 241 7,3 C 15,3 C 17,7 km/h (3 Bft)
24.03.2017 10:40 15,2 C 59 % 1023,6 hPa 0,0 l/m 9,4 km/h (2 Bft) S 185 7,2 C 13,6 C 14,5 km/h (3 Bft)
24.03.2017 10:35 15,1 C 58 % 1023,5 hPa 0,0 l/m 7,3 km/h (2 Bft) S-SW 207 6,9 C 14,6 C 12,9 km/h (3 Bft)
24.03.2017 10:30 15,1 C 56 % 1023,4 hPa 0,0 l/m 7,5 km/h (2 Bft) S-SE 165 6,4 C 14,5 C 16,1 km/h (3 Bft)
24.03.2017 10:25 15,0 C 57 % 1023,4 hPa 0,0 l/m 6,8 km/h (2 Bft) S 171 6,6 C 14,8 C 11,3 km/h (2 Bft)
24.03.2017 10:20 14,8 C 59 % 1023,3 hPa 0,0 l/m 10,0 km/h (2 Bft) SE 134 6,9 C 12,9 C 14,5 km/h (3 Bft)
24.03.2017 10:15 14,9 C 59 % 1023,4 hPa 0,0 l/m 8,1 km/h (2 Bft) S-SW 193 7,0 C 13,9 C 16,1 km/h (3 Bft)
24.03.2017 10:10 15,0 C 60 % 1023,3 hPa 0,0 l/m 7,4 km/h (2 Bft) SE 140 7,3 C 14,4 C 12,9 km/h (3 Bft)
24.03.2017 10:05 14,8 C 60 % 1023,3 hPa 0,0 l/m 7,2 km/h (2 Bft) S-SE 165 7,1 C 14,3 C 14,5 km/h (3 Bft)
24.03.2017 10:00 14,6 C 60 % 1023,3 hPa 0,0 l/m 5,8 km/h (2 Bft) SW 235 6,9 C 14,6 C 11,3 km/h (2 Bft)
24.03.2017 09:55 14,4 C 61 % 1023,3 hPa 0,0 l/m 6,4 km/h (2 Bft) W-SW 246 7,0 C 14,4 C 14,5 km/h (3 Bft)
24.03.2017 09:50 14,5 C 64 % 1023,4 hPa 0,0 l/m 5,3 km/h (1 Bft) S-SW 211 7,8 C 14,5 C 11,3 km/h (2 Bft)
24.03.2017 09:45 14,4 C 64 % 1023,4 hPa 0,0 l/m 4,8 km/h (1 Bft) SW 226 7,7 C 14,4 C 11,3 km/h (2 Bft)
24.03.2017 09:40 14,2 C 65 % 1023,4 hPa 0,0 l/m 7,1 km/h (2 Bft) W-SW 238 7,7 C 13,8 C 14,5 km/h (3 Bft)
24.03.2017 09:35 14,3 C 63 % 1023,5 hPa 0,0 l/m 5,2 km/h (1 Bft) SW 218 7,4 C 14,3 C 14,5 km/h (3 Bft)
24.03.2017 09:30 14,4 C 64 % 1023,5 hPa 0,0 l/m 2,6 km/h (1 Bft) W-SW 249 7,7 C 14,4 C 11,3 km/h (2 Bft)
24.03.2017 09:25 14,3 C 63 % 1023,5 hPa 0,0 l/m 5,6 km/h (1 Bft) S-SW 205 7,4 C 14,3 C 11,3 km/h (2 Bft)
24.03.2017 09:20 14,6 C 64 % 1023,5 hPa 0,0 l/m 2,7 km/h (1 Bft) S-SW 194 7,9 C 14,6 C 8,0 km/h (2 Bft)
24.03.2017 09:15 14,4 C 63 % 1023,4 hPa 0,0 l/m 7,1 km/h (2 Bft) E-NE 63 7,4 C 14,0 C 12,9 km/h (3 Bft)
24.03.2017 09:10 14,6 C 63 % 1023,4 hPa 0,0 l/m 7,7 km/h (2 Bft) S 184 7,6 C 13,8 C 12,9 km/h (3 Bft)
24.03.2017 09:05 14,6 C 66 % 1023,4 hPa 0,0 l/m 5,0 km/h (1 Bft) S-SE 165 8,3 C 14,6 C 9,7 km/h (2 Bft)
24.03.2017 09:00 14,4 C 68 % 1023,3 hPa 0,0 l/m 3,5 km/h (1 Bft) SE 124 8,6 C 14,4 C 8,0 km/h (2 Bft)
24.03.2017 08:55 14,1 C 65 % 1023,3 hPa 0,0 l/m 7,2 km/h (2 Bft) S-SE 167 7,6 C 13,6 C 11,3 km/h (2 Bft)
24.03.2017 08:50 13,9 C 67 % 1023,3 hPa 0,0 l/m 6,9 km/h (2 Bft) SE 135 7,9 C 13,6 C 9,7 km/h (2 Bft)
24.03.2017 08:45 13,7 C 67 % 1023,2 hPa 0,0 l/m 7,6 km/h (2 Bft) S-SE 165 7,7 C 13,0 C 12,9 km/h (3 Bft)
24.03.2017 08:40 13,7 C 70 % 1023,2 hPa 0,0 l/m 5,7 km/h (1 Bft) S-SE 153 8,3 C 13,7 C 11,3 km/h (2 Bft)
24.03.2017 08:35 13,5 C 72 % 1023,2 hPa 0,0 l/m 4,7 km/h (1 Bft) SW 217 8,6 C 13,5 C 9,7 km/h (2 Bft)
24.03.2017 08:30 13,3 C 73 % 1023,3 hPa 0,0 l/m 5,9 km/h (2 Bft) S 172 8,6 C 13,3 C 9,7 km/h (2 Bft)
24.03.2017 08:25 13,2 C 73 % 1023,3 hPa 0,0 l/m 0,6 km/h (0 Bft) S 191 8,5 C 13,2 C 4,8 km/h (1 Bft)
24.03.2017 08:20 12,8 C 75 % 1023,3 hPa 0,0 l/m 2,5 km/h (1 Bft) E 93 8,5 C 12,8 C 4,8 km/h (1 Bft)
24.03.2017 08:15 12,6 C 75 % 1023,3 hPa 0,0 l/m 1,4 km/h (1 Bft) S-SW 210 8,3 C 12,6 C 4,8 km/h (1 Bft)
24.03.2017 08:10 12,9 C 73 % 1023,4 hPa 0,0 l/m 2,0 km/h (1 Bft) SW 231 8,2 C 12,9 C 4,8 km/h (1 Bft)
24.03.2017 08:05 12,8 C 74 % 1023,5 hPa 0,0 l/m 0,0 km/h (0 Bft) E-NE 64 8,3 C 12,8 C 0,0 km/h (0 Bft)
24.03.2017 08:00 12,6 C 75 % 1023,5 hPa 0,0 l/m 0,0 km/h (0 Bft) E-NE 65 8,3 C 12,6 C 1,6 km/h (1 Bft)
24.03.2017 07:55 12,3 C 75 % 1023,5 hPa 0,0 l/m 0,1 km/h (0 Bft) E-NE 65 8,0 C 12,3 C 1,6 km/h (1 Bft)
24.03.2017 07:50 12,2 C 76 % 1023,5 hPa 0,0 l/m 0,5 km/h (0 Bft) E-NE 64 8,1 C 12,2 C 3,2 km/h (1 Bft)
24.03.2017 07:45 12,0 C 76 % 1023,3 hPa 0,0 l/m 1,7 km/h (1 Bft) SE 134 7,9 C 12,0 C 4,8 km/h (1 Bft)
24.03.2017 07:40 11,7 C 77 % 1023,3 hPa 0,0 l/m 2,1 km/h (1 Bft) E-NE 74 7,8 C 11,7 C 4,8 km/h (1 Bft)
24.03.2017 07:35 11,3 C 77 % 1023,3 hPa 0,0 l/m 5,8 km/h (2 Bft) E-NE 75 7,4 C 11,3 C 11,3 km/h (2 Bft)
24.03.2017 07:30 11,2 C 77 % 1023,3 hPa 0,0 l/m 3,6 km/h (1 Bft) E-NE 72 7,3 C 11,2 C 9,7 km/h (2 Bft)
24.03.2017 07:25 10,9 C 78 % 1023,2 hPa 0,0 l/m 3,7 km/h (1 Bft) E-NE 68 7,2 C 10,9 C 9,7 km/h (2 Bft)
24.03.2017 07:20 10,4 C 78 % 1023,1 hPa 0,0 l/m 3,3 km/h (1 Bft) E-NE 64 6,7 C 10,4 C 8,0 km/h (2 Bft)
24.03.2017 07:15 10,2 C 78 % 1023,0 hPa 0,0 l/m 2,4 km/h (1 Bft) SE 143 6,5 C 10,2 C 8,0 km/h (2 Bft)
24.03.2017 07:10 9,9 C 79 % 1023,0 hPa 0,0 l/m 6,8 km/h (2 Bft) NE 52 6,4 C 9,6 C 11,3 km/h (2 Bft)
24.03.2017 07:05 9,7 C 79 % 1023,0 hPa 0,0 l/m 4,6 km/h (1 Bft) E-SE 110 6,2 C 9,7 C 8,0 km/h (2 Bft)
24.03.2017 07:00 9,7 C 78 % 1023,0 hPa 0,0 l/m 2,7 km/h (1 Bft) E-NE 66 6,1 C 9,7 C 6,4 km/h (2 Bft)
24.03.2017 06:55 9,9 C 77 % 1022,9 hPa 0,0 l/m 3,2 km/h (1 Bft) E 89 6,1 C 9,9 C 8,0 km/h (2 Bft)
24.03.2017 06:50 10,2 C 76 % 1022,9 hPa 0,0 l/m 5,8 km/h (2 Bft) E 92 6,2 C 10,2 C 11,3 km/h (2 Bft)
24.03.2017 06:45 10,6 C 71 % 1022,8 hPa 0,0 l/m 3,2 km/h (1 Bft) SE 133 5,6 C 10,6 C 9,7 km/h (2 Bft)
24.03.2017 06:40 10,6 C 66 % 1022,8 hPa 0,0 l/m 3,5 km/h (1 Bft) E-NE 61 4,5 C 10,6 C 12,9 km/h (3 Bft)
24.03.2017 06:35 10,4 C 75 % 1022,9 hPa 0,0 l/m 3,5 km/h (1 Bft) E-NE 76 6,2 C 10,4 C 11,3 km/h (2 Bft)
24.03.2017 06:30 10,5 C 73 % 1022,8 hPa 0,0 l/m 4,5 km/h (1 Bft) E-NE 60 5,9 C 10,5 C 12,9 km/h (3 Bft)
24.03.2017 06:25 10,4 C 70 % 1022,9 hPa 0,0 l/m 6,2 km/h (2 Bft) E-NE 74 5,2 C 10,4 C 11,3 km/h (2 Bft)
24.03.2017 06:20 10,8 C 71 % 1022,9 hPa 0,0 l/m 7,9 km/h (2 Bft) NE 54 5,8 C 9,8 C 20,9 km/h (4 Bft)
24.03.2017 06:15 10,8 C 60 % 1022,7 hPa 0,0 l/m 9,5 km/h (2 Bft) E-NE 70 3,4 C 8,8 C 24,1 km/h (4 Bft)
24.03.2017 06:10 10,6 C 68 % 1022,8 hPa 0,0 l/m 9,7 km/h (2 Bft) E-SE 113 4,9 C 8,4 C 20,9 km/h (4 Bft)
24.03.2017 06:05 10,3 C 74 % 1022,8 hPa 0,0 l/m 5,2 km/h (1 Bft) E-NE 63 5,9 C 10,3 C 9,7 km/h (2 Bft)
24.03.2017 06:00 10,4 C 71 % 1022,6 hPa 0,0 l/m 7,5 km/h (2 Bft) E 86 5,4 C 9,6 C 25,7 km/h (4 Bft)
24.03.2017 05:55 10,2 C 73 % 1022,7 hPa 0,0 l/m 8,0 km/h (2 Bft) E 79 5,6 C 9,1 C 19,3 km/h (3 Bft)
24.03.2017 05:50 10,2 C 69 % 1022,7 hPa 0,0 l/m 10,2 km/h (2 Bft) E-NE 66 4,8 C 7,7 C 20,9 km/h (4 Bft)
24.03.2017 05:45 9,9 C 72 % 1022,6 hPa 0,0 l/m 8,7 km/h (2 Bft) E-NE 70 5,1 C 8,3 C 20,9 km/h (4 Bft)
24.03.2017 05:40 10,2 C 69 % 1022,5 hPa 0,0 l/m 6,4 km/h (2 Bft) E 79 4,8 C 10,2 C 16,1 km/h (3 Bft)
24.03.2017 05:35 10,3 C 67 % 1022,6 hPa 0,0 l/m 6,5 km/h (2 Bft) E-NE 65 4,4 C 10,3 C 16,1 km/h (3 Bft)
24.03.2017 05:30 10,1 C 74 % 1022,6 hPa 0,0 l/m 3,0 km/h (1 Bft) E-NE 70 5,7 C 10,1 C 9,7 km/h (2 Bft)
24.03.2017 05:25 10,1 C 75 % 1022,6 hPa 0,0 l/m 1,5 km/h (1 Bft) E-NE 75 5,9 C 10,1 C 8,0 km/h (2 Bft)
24.03.2017 05:20 9,9 C 75 % 1022,6 hPa 0,0 l/m 0,5 km/h (0 Bft) E-SE 114 5,7 C 9,9 C 3,2 km/h (1 Bft)
24.03.2017 05:15 10,2 C 73 % 1022,6 hPa 0,0 l/m 1,8 km/h (1 Bft) N-NE 22 5,6 C 10,2 C 4,8 km/h (1 Bft)
24.03.2017 05:10 10,2 C 72 % 1022,5 hPa 0,0 l/m 1,9 km/h (1 Bft) N-NE 22 5,4 C 10,2 C 4,8 km/h (1 Bft)
24.03.2017 05:05 10,7 C 66 % 1022,5 hPa 0,0 l/m 1,4 km/h (1 Bft) E-SE 119 4,6 C 10,7 C 6,4 km/h (2 Bft)
24.03.2017 05:00 10,5 C 68 % 1022,5 hPa 0,0 l/m 3,8 km/h (1 Bft) E-NE 58 4,8 C 10,5 C 12,9 km/h (3 Bft)
24.03.2017 04:55 10,7 C 66 % 1022,5 hPa 0,0 l/m 9,5 km/h (2 Bft) E-NE 70 4,6 C 8,7 C 22,5 km/h (4 Bft)
24.03.2017 04:50 10,7 C 63 % 1022,5 hPa 0,0 l/m 10,6 km/h (2 Bft) E-NE 62 3,9 C 8,0 C 19,3 km/h (3 Bft)
24.03.2017 04:45 10,6 C 59 % 1022,5 hPa 0,0 l/m 10,2 km/h (2 Bft) E 84 2,9 C 8,1 C 20,9 km/h (4 Bft)
24.03.2017 04:40 10,6 C 59 % 1022,5 hPa 0,0 l/m 14,1 km/h (3 Bft) N-NE 25 2,9 C 6,2 C 25,7 km/h (4 Bft)
24.03.2017 04:35 10,6 C 68 % 1022,5 hPa 0,0 l/m 8,9 km/h (2 Bft) N-NE 30 4,9 C 8,9 C 17,7 km/h (3 Bft)
24.03.2017 04:30 10,5 C 67 % 1022,5 hPa 0,0 l/m 8,1 km/h (2 Bft) N 10 4,6 C 9,3 C 22,5 km/h (4 Bft)
24.03.2017 04:25 10,5 C 68 % 1022,4 hPa 0,0 l/m 11,8 km/h (2 Bft) NE 42 4,8 C 7,2 C 27,4 km/h (4 Bft)
24.03.2017 04:20 10,2 C 61 % 1022,4 hPa 0,0 l/m 16,2 km/h (3 Bft) N 11 3,0 C 4,9 C 29,0 km/h (5 Bft)
24.03.2017 04:15 10,2 C 61 % 1022,4 hPa 0,0 l/m 21,9 km/h (4 Bft) E-NE 67 3,0 C 3,0 C 35,4 km/h (5 Bft)
24.03.2017 04:10 10,1 C 62 % 1022,3 hPa 0,0 l/m 21,9 km/h (4 Bft) E-NE 71 3,2 C 2,8 C 33,8 km/h (5 Bft)
24.03.2017 04:05 10,1 C 62 % 1022,3 hPa 0,0 l/m 28,1 km/h (4 Bft) NE 41 3,2 C 1,2 C 41,8 km/h (6 Bft)
24.03.2017 04:00 10,2 C 63 % 1022,4 hPa 0,0 l/m 21,0 km/h (4 Bft) E-NE 61 3,5 C 3,2 C 38,6 km/h (5 Bft)
24.03.2017 03:55 10,5 C 62 % 1022,5 hPa 0,0 l/m 16,0 km/h (3 Bft) NE 49 3,5 C 5,3 C 29,0 km/h (5 Bft)
24.03.2017 03:50 10,4 C 67 % 1022,5 hPa 0,0 l/m 20,3 km/h (4 Bft) E 91 4,5 C 3,7 C 40,2 km/h (6 Bft)
24.03.2017 03:45 10,3 C 65 % 1022,5 hPa 0,0 l/m 21,0 km/h (4 Bft) NE 53 4,0 C 3,4 C 37,0 km/h (5 Bft)
24.03.2017 03:40 10,1 C 66 % 1022,5 hPa 0,0 l/m 26,0 km/h (4 Bft) E 79 4,0 C 1,7 C 46,7 km/h (6 Bft)
24.03.2017 03:35 9,7 C 67 % 1022,5 hPa 0,0 l/m 19,2 km/h (3 Bft) E 91 3,9 C 3,2 C 33,8 km/h (5 Bft)
24.03.2017 03:30 9,6 C 68 % 1022,5 hPa 0,0 l/m 19,6 km/h (3 Bft) E-NE 65 4,0 C 2,9 C 32,2 km/h (5 Bft)
24.03.2017 03:25 9,6 C 68 % 1022,4 hPa 0,0 l/m 20,5 km/h (4 Bft) NE 53 4,0 C 2,6 C 33,8 km/h (5 Bft)
24.03.2017 03:20 9,7 C 67 % 1022,3 hPa 0,0 l/m 21,8 km/h (4 Bft) N-NE 16 3,9 C 2,3 C 33,8 km/h (5 Bft)
24.03.2017 03:15 9,7 C 67 % 1022,2 hPa 0,0 l/m 25,0 km/h (4 Bft) E-NE 75 3,9 C 1,4 C 38,6 km/h (5 Bft)
24.03.2017 03:10 9,7 C 67 % 1022,3 hPa 0,0 l/m 23,5 km/h (4 Bft) E-NE 58 3,9 C 1,8 C 40,2 km/h (6 Bft)
24.03.2017 03:05 9,7 C 67 % 1022,2 hPa 0,0 l/m 24,1 km/h (4 Bft) N-NE 13 3,9 C 1,7 C 40,2 km/h (6 Bft)
24.03.2017 03:00 9,8 C 66 % 1022,1 hPa 0,0 l/m 25,8 km/h (4 Bft) NE 53 3,8 C 1,4 C 41,8 km/h (6 Bft)
24.03.2017 02:55 9,8 C 65 % 1022,1 hPa 0,0 l/m 28,2 km/h (4 Bft) E-NE 61 3,5 C 0,8 C 43,5 km/h (6 Bft)
24.03.2017 02:50 9,8 C 65 % 1022,1 hPa 0,0 l/m 23,2 km/h (4 Bft) N-NE 22 3,5 C 2,1 C 41,8 km/h (6 Bft)
24.03.2017 02:45 9,8 C 65 % 1022,2 hPa 0,0 l/m 24,3 km/h (4 Bft) NE 44 3,5 C 1,7 C 38,6 km/h (5 Bft)
24.03.2017 02:40 9,9 C 65 % 1022,3 hPa 0,0 l/m 24,8 km/h (4 Bft) N-NE 28 3,6 C 1,7 C 40,2 km/h (6 Bft)
24.03.2017 02:35 9,9 C 65 % 1022,4 hPa 0,0 l/m 24,0 km/h (4 Bft) E-NE 62 3,6 C 2,0 C 40,2 km/h (6 Bft)
24.03.2017 02:30 9,8 C 65 % 1022,5 hPa 0,0 l/m 25,4 km/h (4 Bft) NE 54 3,5 C 1,5 C 40,2 km/h (6 Bft)
24.03.2017 02:25 9,8 C 65 % 1022,4 hPa 0,0 l/m 23,6 km/h (4 Bft) E-NE 57 3,5 C 1,9 C 41,8 km/h (6 Bft)
24.03.2017 02:20 9,9 C 65 % 1022,4 hPa 0,0 l/m 27,8 km/h (4 Bft) NE 52 3,6 C 1,0 C 41,8 km/h (6 Bft)
24.03.2017 02:15 9,9 C 65 % 1022,5 hPa 0,0 l/m 27,0 km/h (4 Bft) E-NE 62 3,6 C 1,2 C 40,2 km/h (6 Bft)
24.03.2017 02:10 9,9 C 64 % 1022,5 hPa 0,0 l/m 29,9 km/h (5 Bft) NE 40 3,4 C 0,5 C 48,3 km/h (6 Bft)
24.03.2017 02:05 10,0 C 63 % 1022,5 hPa 0,0 l/m 31,4 km/h (5 Bft) NE 56 3,3 C 0,4 C 53,1 km/h (7 Bft)
24.03.2017 02:00 10,0 C 63 % 1022,5 hPa 0,0 l/m 27,1 km/h (4 Bft) N-NE 18 3,3 C 1,3 C 41,8 km/h (6 Bft)
24.03.2017 01:55 10,0 C 64 % 1022,5 hPa 0,0 l/m 31,0 km/h (5 Bft) NE 45 3,5 C 0,4 C 46,7 km/h (6 Bft)
24.03.2017 01:50 9,9 C 64 % 1022,6 hPa 0,0 l/m 24,6 km/h (4 Bft) E-NE 61 3,4 C 1,8 C 38,6 km/h (5 Bft)
24.03.2017 01:45 10,1 C 63 % 1022,5 hPa 0,0 l/m 26,2 km/h (4 Bft) N-NE 30 3,4 C 1,7 C 43,5 km/h (6 Bft)
24.03.2017 01:40 10,1 C 63 % 1022,4 hPa 0,0 l/m 25,3 km/h (4 Bft) NE 42 3,4 C 1,9 C 40,2 km/h (6 Bft)
24.03.2017 01:35 10,1 C 63 % 1022,4 hPa 0,0 l/m 25,6 km/h (4 Bft) NE 54 3,4 C 1,8 C 41,8 km/h (6 Bft)
24.03.2017 01:30 10,2 C 63 % 1022,4 hPa 0,0 l/m 25,8 km/h (4 Bft) NE 44 3,5 C 1,9 C 45,1 km/h (6 Bft)
24.03.2017 01:25 10,2 C 63 % 1022,4 hPa 0,0 l/m 28,2 km/h (4 Bft) NE 41 3,5 C 1,3 C 43,5 km/h (6 Bft)
24.03.2017 01:20 10,2 C 64 % 1022,4 hPa 0,0 l/m 28,8 km/h (4 Bft) NE 53 3,7 C 1,2 C 48,3 km/h (6 Bft)
24.03.2017 01:15 10,3 C 62 % 1022,3 hPa 0,0 l/m 30,1 km/h (5 Bft) E-NE 70 3,3 C 1,1 C 45,1 km/h (6 Bft)
24.03.2017 01:10 10,3 C 64 % 1022,2 hPa 0,0 l/m 25,3 km/h (4 Bft) N-NE 18 3,8 C 2,2 C 48,3 km/h (6 Bft)
24.03.2017 01:05 10,4 C 63 % 1022,2 hPa 0,0 l/m 31,4 km/h (5 Bft) N-NE 26 3,7 C 0,9 C 46,7 km/h (6 Bft)
24.03.2017 01:00 10,4 C 63 % 1022,2 hPa 0,0 l/m 28,8 km/h (4 Bft) NE 41 3,7 C 1,5 C 45,1 km/h (6 Bft)
24.03.2017 00:55 10,4 C 64 % 1022,2 hPa 0,0 l/m 29,3 km/h (5 Bft) NE 56 3,9 C 1,4 C 48,3 km/h (6 Bft)
24.03.2017 00:50 10,6 C 64 % 1022,1 hPa 0,0 l/m 29,8 km/h (5 Bft) N-NW 330 4,1 C 1,5 C 51,5 km/h (7 Bft)
24.03.2017 00:45 10,6 C 64 % 1022,0 hPa 0,0 l/m 22,6 km/h (4 Bft) E-NE 58 4,1 C 3,3 C 38,6 km/h (5 Bft)
24.03.2017 00:40 10,7 C 65 % 1022,1 hPa 0,0 l/m 30,7 km/h (5 Bft) NE 53 4,4 C 1,5 C 46,7 km/h (6 Bft)
24.03.2017 00:35 10,7 C 66 % 1022,0 hPa 0,0 l/m 28,8 km/h (4 Bft) N-NE 25 4,6 C 1,9 C 48,3 km/h (6 Bft)
24.03.2017 00:30 10,8 C 66 % 1022,0 hPa 0,0 l/m 25,8 km/h (4 Bft) NE 53 4,7 C 2,7 C 40,2 km/h (6 Bft)
24.03.2017 00:25 10,8 C 66 % 1022,1 hPa 0,0 l/m 26,4 km/h (4 Bft) E-NE 66 4,7 C 2,6 C 38,6 km/h (5 Bft)
24.03.2017 00:20 10,8 C 67 % 1022,0 hPa 0,0 l/m 24,3 km/h (4 Bft) N-NE 24 4,9 C 3,1 C 37,0 km/h (5 Bft)
24.03.2017 00:15 10,8 C 66 % 1022,0 hPa 0,0 l/m 25,3 km/h (4 Bft) N-NE 15 4,7 C 2,8 C 41,8 km/h (6 Bft)
24.03.2017 00:10 10,8 C 66 % 1022,0 hPa 0,0 l/m 21,8 km/h (4 Bft) NE 53 4,7 C 3,8 C 38,6 km/h (5 Bft)
24.03.2017 00:05 11,0 C 66 % 1022,1 hPa 0,0 l/m 29,0 km/h (5 Bft) NE 46 4,9 C 2,3 C 41,8 km/h (6 Bft)
24.03.2017 00:00 10,9 C 68 % 1021,9 hPa 0,0 l/m 26,8 km/h (4 Bft) E-NE 77 5,2 C 2,6 C 46,7 km/h (6 Bft)
_ Min-Time 03:25 10:30 16:50 - 08:00 - - 04:40 02:05 08:05
Minimum _ 9,6 C 56 % 1021,6 hPa - 0,0 km/h (0 Bft) - - 2,9 C 0,4 C 0,0 km/h (0 Bft)
_ Max-Time 10:45 07:05 10:40 00:00 01:05 - - 16:05 10:45 02:05
Maximum _ 15,4 C 79 % 1023,6 hPa 0,0 l/m 31,4 km/h
N-NE (5 Bft)
- - 9,0 C 15,3 C 53,1 km/h
NE (7 Bft)
Average _ 12,7 C 66 % 1022,7 hPa #0,0 l/m 11,2 km/h (2 Bft) E-NE - 6,4 C 10,1 C 20,2 km/h (4 Bft)